sensor_id;sensor_type;location;lat;lon;timestamp;pressure;altitude;pressure_sealevel;temperature;humidity
60725;BME280;59881;36.722;-4.462;2023-06-04T00:00:35;100684.41;;;18.47;86.67
60725;BME280;59881;36.722;-4.462;2023-06-04T00:03:01;100224.53;;;15.67;86.23
60725;BME280;59881;36.722;-4.462;2023-06-04T00:05:26;100756.56;;;17.99;86.42
60725;BME280;59881;36.722;-4.462;2023-06-04T00:07:52;100353.78;;;16.23;86.02
60725;BME280;59881;36.722;-4.462;2023-06-04T00:10:18;100098.84;;;14.83;85.82
60725;BME280;59881;36.722;-4.462;2023-06-04T00:12:43;100674.84;;;18.44;85.79
60725;BME280;59881;36.722;-4.462;2023-06-04T00:15:09;100437.13;;;16.97;85.07
60725;BME280;59881;36.722;-4.462;2023-06-04T00:17:35;100675.63;;;18.36;85.38
60725;BME280;59881;36.722;-4.462;2023-06-04T00:20:00;100218.13;;;15.60;84.99
60725;BME280;59881;36.722;-4.462;2023-06-04T00:22:26;100336.91;;;16.14;84.80
60725;BME280;59881;36.722;-4.462;2023-06-04T00:24:51;100241.16;;;15.69;84.85
60725;BME280;59881;36.722;-4.462;2023-06-04T00:27:17;100207.69;;;15.48;84.77
60725;BME280;59881;36.722;-4.462;2023-06-04T00:29:43;100654.28;;;18.18;84.88
60725;BME280;59881;36.722;-4.462;2023-06-04T00:32:08;100656.19;;;18.26;85.11
60725;BME280;59881;36.722;-4.462;2023-06-04T00:34:34;99887.41;;;13.54;84.60
60725;BME280;59881;36.722;-4.462;2023-06-04T00:37:00;100658.16;;;18.24;85.15
60725;BME280;59881;36.722;-4.462;2023-06-04T00:39:26;100654.84;;;18.22;84.83
60725;BME280;59881;36.722;-4.462;2023-06-04T00:41:52;100308.50;;;16.15;84.73
60725;BME280;59881;36.722;-4.462;2023-06-04T00:44:17;100332.59;;;16.31;84.52
60725;BME280;59881;36.722;-4.462;2023-06-04T00:46:44;100651.09;;;18.15;84.70
60725;BME280;59881;36.722;-4.462;2023-06-04T00:49:10;100563.09;;;17.61;84.97
60725;BME280;59881;36.722;-4.462;2023-06-04T00:51:37;100256.66;;;15.26;84.79
60725;BME280;59881;36.722;-4.462;2023-06-04T00:54:04;100635.03;;;18.07;84.98
60725;BME280;59881;36.722;-4.462;2023-06-04T00:56:37;100272.56;;;15.26;85.01
60725;BME280;59881;36.722;-4.462;2023-06-04T00:59:07;100124.13;;;14.78;85.23
60725;BME280;59881;36.722;-4.462;2023-06-04T01:01:42;100648.38;;;18.07;85.78
60725;BME280;59881;36.722;-4.462;2023-06-04T01:04:16;100152.09;;;15.09;85.34
60725;BME280;59881;36.722;-4.462;2023-06-04T01:06:45;100453.41;;;16.19;85.61
60725;BME280;59881;36.722;-4.462;2023-06-04T01:09:13;100315.66;;;16.05;85.25
60725;BME280;59881;36.722;-4.462;2023-06-04T01:11:39;100710.28;;;18.01;85.71
60725;BME280;59881;36.722;-4.462;2023-06-04T01:14:06;100392.22;;;15.91;85.39
60725;BME280;59881;36.722;-4.462;2023-06-04T01:16:56;100626.81;;;18.00;85.49
60725;BME280;59881;36.722;-4.462;2023-06-04T01:25:32;100630.59;;;17.97;85.73
60725;BME280;59881;36.722;-4.462;2023-06-04T01:27:58;100533.72;;;16.70;85.23
60725;BME280;59881;36.722;-4.462;2023-06-04T01:30:30;100203.44;;;15.28;85.18
60725;BME280;59881;36.722;-4.462;2023-06-04T01:32:57;100627.00;;;17.89;85.49
60725;BME280;59881;36.722;-4.462;2023-06-04T01:35:23;100649.31;;;17.88;85.46
60725;BME280;59881;36.722;-4.462;2023-06-04T01:37:49;100635.31;;;17.86;85.47
60725;BME280;59881;36.722;-4.462;2023-06-04T01:40:16;100629.84;;;17.87;85.75
60725;BME280;59881;36.722;-4.462;2023-06-04T01:42:42;100508.47;;;17.11;85.84
60725;BME280;59881;36.722;-4.462;2023-06-04T01:45:08;100295.59;;;15.36;85.70
60725;BME280;59881;36.722;-4.462;2023-06-04T01:47:34;99819.16;;;12.79;85.39
60725;BME280;59881;36.722;-4.462;2023-06-04T01:50:01;99901.34;;;13.36;85.36
60725;BME280;59881;36.722;-4.462;2023-06-04T01:52:27;100393.34;;;16.36;85.85
60725;BME280;59881;36.722;-4.462;2023-06-04T01:54:52;100626.50;;;17.75;85.83
60725;BME280;59881;36.722;-4.462;2023-06-04T01:57:20;100626.22;;;17.78;85.99
60725;BME280;59881;36.722;-4.462;2023-06-04T01:59:46;100494.09;;;16.67;85.83
60725;BME280;59881;36.722;-4.462;2023-06-04T02:02:12;100302.38;;;15.77;86.17
60725;BME280;59881;36.722;-4.462;2023-06-04T02:04:38;100076.63;;;14.08;85.76
60725;BME280;59881;36.722;-4.462;2023-06-04T02:07:08;100690.63;;;17.74;86.46
60725;BME280;59881;36.722;-4.462;2023-06-04T02:09:34;100677.63;;;17.61;86.03
60725;BME280;59881;36.722;-4.462;2023-06-04T02:12:00;100615.84;;;17.75;85.92
60725;BME280;59881;36.722;-4.462;2023-06-04T02:14:26;100417.72;;;15.75;85.36
60725;BME280;59881;36.722;-4.462;2023-06-04T02:16:51;100659.94;;;17.70;85.74
60725;BME280;59881;36.722;-4.462;2023-06-04T02:19:19;100605.94;;;17.68;85.97
60725;BME280;59881;36.722;-4.462;2023-06-04T02:21:46;100003.00;;;13.43;85.12
60725;BME280;59881;36.722;-4.462;2023-06-04T02:24:12;100330.03;;;15.65;85.18
60725;BME280;59881;36.722;-4.462;2023-06-04T02:26:37;100433.28;;;16.54;85.44
60725;BME280;59881;36.722;-4.462;2023-06-04T02:29:03;100009.03;;;13.84;85.34
60725;BME280;59881;36.722;-4.462;2023-06-04T02:31:29;100612.88;;;17.61;85.71
60725;BME280;59881;36.722;-4.462;2023-06-04T02:33:55;100530.59;;;17.12;85.39
60725;BME280;59881;36.722;-4.462;2023-06-04T02:36:21;100461.72;;;16.71;85.46
60725;BME280;59881;36.722;-4.462;2023-06-04T02:38:46;100650.00;;;17.62;85.65
60725;BME280;59881;36.722;-4.462;2023-06-04T02:41:12;100612.72;;;17.62;85.64
60725;BME280;59881;36.722;-4.462;2023-06-04T02:43:37;100609.06;;;17.63;85.62
60725;BME280;59881;36.722;-4.462;2023-06-04T02:46:03;100627.34;;;17.58;85.44
60725;BME280;59881;36.722;-4.462;2023-06-04T02:48:29;100432.16;;;16.47;85.17
60725;BME280;59881;36.722;-4.462;2023-06-04T02:50:54;100295.94;;;15.70;85.15
60725;BME280;59881;36.722;-4.462;2023-06-04T02:53:20;100076.19;;;14.22;84.93
60725;BME280;59881;36.722;-4.462;2023-06-04T02:55:46;100609.28;;;17.52;85.15
60725;BME280;59881;36.722;-4.462;2023-06-04T02:58:11;99947.53;;;13.22;84.71
60725;BME280;59881;36.722;-4.462;2023-06-04T03:00:39;99947.31;;;13.45;84.55
60725;BME280;59881;36.722;-4.462;2023-06-04T03:03:05;100603.16;;;17.42;85.10
60725;BME280;59881;36.722;-4.462;2023-06-04T03:05:31;100524.44;;;16.37;84.73
60725;BME280;59881;36.722;-4.462;2023-06-04T03:07:58;100428.75;;;16.27;84.75
60725;BME280;59881;36.722;-4.462;2023-06-04T03:10:24;100594.47;;;17.40;85.13
60725;BME280;59881;36.722;-4.462;2023-06-04T03:12:50;100593.66;;;17.39;85.02
60725;BME280;59881;36.722;-4.462;2023-06-04T03:15:16;100600.94;;;17.37;85.26
60725;BME280;59881;36.722;-4.462;2023-06-04T03:17:41;100591.28;;;17.36;84.33
60725;BME280;59881;36.722;-4.462;2023-06-04T03:20:07;100356.78;;;15.34;84.80
60725;BME280;59881;36.722;-4.462;2023-06-04T03:22:34;100601.25;;;17.34;85.18
60725;BME280;59881;36.722;-4.462;2023-06-04T03:25:01;100366.97;;;15.48;85.01
60725;BME280;59881;36.722;-4.462;2023-06-04T03:27:27;100669.94;;;17.30;85.41
60725;BME280;59881;36.722;-4.462;2023-06-04T03:29:52;100126.78;;;14.39;84.77
60725;BME280;59881;36.722;-4.462;2023-06-04T03:32:18;100354.41;;;15.11;85.16
60725;BME280;59881;36.722;-4.462;2023-06-04T03:34:44;100475.66;;;16.55;85.28
60725;BME280;59881;36.722;-4.462;2023-06-04T03:37:09;99813.84;;;12.50;84.94
60725;BME280;59881;36.722;-4.462;2023-06-04T03:39:35;100467.28;;;16.50;85.17
60725;BME280;59881;36.722;-4.462;2023-06-04T03:42:01;100596.66;;;17.26;85.16
60725;BME280;59881;36.722;-4.462;2023-06-04T03:44:26;100613.88;;;17.32;85.28
60725;BME280;59881;36.722;-4.462;2023-06-04T03:46:52;100330.94;;;15.36;84.71
60725;BME280;59881;36.722;-4.462;2023-06-04T03:49:17;100402.81;;;16.01;84.79
60725;BME280;59881;36.722;-4.462;2023-06-04T03:51:44;100098.34;;;14.12;84.59
60725;BME280;59881;36.722;-4.462;2023-06-04T03:54:10;100435.53;;;16.02;84.95
60725;BME280;59881;36.722;-4.462;2023-06-04T03:56:36;100336.22;;;15.65;84.79
60725;BME280;59881;36.722;-4.462;2023-06-04T03:59:02;100097.81;;;14.18;84.35
60725;BME280;59881;36.722;-4.462;2023-06-04T04:01:27;100426.06;;;15.21;84.40
60725;BME280;59881;36.722;-4.462;2023-06-04T04:03:53;100654.25;;;17.27;84.65
60725;BME280;59881;36.722;-4.462;2023-06-04T04:06:20;100605.47;;;17.27;84.62
60725;BME280;59881;36.722;-4.462;2023-06-04T04:08:46;99866.94;;;12.47;83.79
60725;BME280;59881;36.722;-4.462;2023-06-04T04:11:14;99895.56;;;12.92;83.86
60725;BME280;59881;36.722;-4.462;2023-06-04T04:13:40;100507.78;;;16.34;84.06
60725;BME280;59881;36.722;-4.462;2023-06-04T04:16:06;100061.78;;;13.47;83.59
60725;BME280;59881;36.722;-4.462;2023-06-04T04:18:35;100607.50;;;17.15;83.94
60725;BME280;59881;36.722;-4.462;2023-06-04T04:21:01;100313.81;;;15.01;83.90
60725;BME280;59881;36.722;-4.462;2023-06-04T04:23:28;100611.28;;;17.12;84.13
60725;BME280;59881;36.722;-4.462;2023-06-04T04:25:54;100302.88;;;15.24;83.43
60725;BME280;59881;36.722;-4.462;2023-06-04T04:28:22;100606.09;;;17.11;84.19
60725;BME280;59881;36.722;-4.462;2023-06-04T04:30:47;100306.50;;;15.23;84.08
60725;BME280;59881;36.722;-4.462;2023-06-04T04:33:14;100658.56;;;16.71;84.19
60725;BME280;59881;36.722;-4.462;2023-06-04T04:35:43;100283.22;;;15.07;84.22
60725;BME280;59881;36.722;-4.462;2023-06-04T04:38:09;100116.91;;;14.02;84.31
60725;BME280;59881;36.722;-4.462;2023-06-04T04:40:36;100621.94;;;17.12;84.71
60725;BME280;59881;36.722;-4.462;2023-06-04T04:43:02;100482.38;;;16.12;84.48
60725;BME280;59881;36.722;-4.462;2023-06-04T04:45:28;100495.94;;;16.19;84.53
60725;BME280;59881;36.722;-4.462;2023-06-04T04:47:53;100270.78;;;14.98;84.45
60725;BME280;59881;36.722;-4.462;2023-06-04T04:50:19;100346.31;;;15.23;84.21
60725;BME280;59881;36.722;-4.462;2023-06-04T04:52:44;100145.31;;;14.10;84.26
60725;BME280;59881;36.722;-4.462;2023-06-04T04:55:10;100628.97;;;17.04;84.65
60725;BME280;59881;36.722;-4.462;2023-06-04T04:57:38;100628.84;;;17.05;84.88
60725;BME280;59881;36.722;-4.462;2023-06-04T05:00:03;100693.94;;;17.11;85.20
60725;BME280;59881;36.722;-4.462;2023-06-04T05:02:35;100492.66;;;16.35;85.19
60725;BME280;59881;36.722;-4.462;2023-06-04T05:05:01;100455.22;;;16.09;85.14
60725;BME280;59881;36.722;-4.462;2023-06-04T05:07:27;99876.19;;;12.62;84.90
60725;BME280;59881;36.722;-4.462;2023-06-04T05:09:52;100688.00;;;17.27;85.22
60725;BME280;59881;36.722;-4.462;2023-06-04T05:12:18;100624.53;;;17.32;85.21
60725;BME280;59881;36.722;-4.462;2023-06-04T05:14:43;100140.88;;;14.10;84.93
60725;BME280;59881;36.722;-4.462;2023-06-04T05:17:09;100532.19;;;16.67;84.97
60725;BME280;59881;36.722;-4.462;2023-06-04T05:19:36;100620.31;;;17.57;84.72
60725;BME280;59881;36.722;-4.462;2023-06-04T05:22:02;100241.81;;;15.34;84.27
60725;BME280;59881;36.722;-4.462;2023-06-04T05:24:28;100399.34;;;16.01;83.95
60725;BME280;59881;36.722;-4.462;2023-06-04T05:26:55;100017.34;;;14.28;84.74
60725;BME280;59881;36.722;-4.462;2023-06-04T05:29:22;100640.28;;;19.05;83.98
60725;BME280;59881;36.722;-4.462;2023-06-04T05:31:48;100535.75;;;18.83;81.73
60725;BME280;59881;36.722;-4.462;2023-06-04T05:34:13;100486.72;;;19.59;77.53
60725;BME280;59881;36.722;-4.462;2023-06-04T05:36:42;100188.28;;;18.47;73.16
60725;BME280;59881;36.722;-4.462;2023-06-04T05:39:08;100687.84;;;21.66;69.16
60725;BME280;59881;36.722;-4.462;2023-06-04T05:41:35;100380.63;;;20.49;66.01
60725;BME280;59881;36.722;-4.462;2023-06-04T05:44:01;100331.72;;;20.94;63.80
60725;BME280;59881;36.722;-4.462;2023-06-04T05:46:27;99979.81;;;18.91;60.99
60725;BME280;59881;36.722;-4.462;2023-06-04T05:48:52;100612.06;;;23.24;59.22
60725;BME280;59881;36.722;-4.462;2023-06-04T05:51:19;100619.84;;;24.28;57.12
60725;BME280;59881;36.722;-4.462;2023-06-04T05:53:46;100610.72;;;24.79;55.37
60725;BME280;59881;36.722;-4.462;2023-06-04T05:56:11;100234.03;;;22.82;53.31
60725;BME280;59881;36.722;-4.462;2023-06-04T05:58:37;100345.44;;;24.13;51.89
60725;BME280;59881;36.722;-4.462;2023-06-04T06:01:03;100245.19;;;23.98;49.95
60725;BME280;59881;36.722;-4.462;2023-06-04T06:03:28;100339.75;;;25.05;48.53
60725;BME280;59881;36.722;-4.462;2023-06-04T06:05:54;100415.69;;;25.61;47.15
60725;BME280;59881;36.722;-4.462;2023-06-04T06:08:21;100603.41;;;27.42;46.29
60725;BME280;59881;36.722;-4.462;2023-06-04T06:10:46;100065.72;;;23.79;44.97
60725;BME280;59881;36.722;-4.462;2023-06-04T06:13:12;100649.72;;;28.04;44.40
60725;BME280;59881;36.722;-4.462;2023-06-04T06:15:38;100510.53;;;27.87;43.38
60725;BME280;59881;36.722;-4.462;2023-06-04T06:18:03;100449.78;;;27.51;41.98
60725;BME280;59881;36.722;-4.462;2023-06-04T06:20:29;100213.38;;;26.52;41.97
60725;BME280;59881;36.722;-4.462;2023-06-04T06:22:55;100686.28;;;29.58;41.07
60725;BME280;59881;36.722;-4.462;2023-06-04T06:25:20;100579.94;;;29.19;40.99
60725;BME280;59881;36.722;-4.462;2023-06-04T06:27:45;100631.88;;;30.13;40.29
60725;BME280;59881;36.722;-4.462;2023-06-04T06:30:13;100403.06;;;28.98;40.28
60725;BME280;59881;36.722;-4.462;2023-06-04T06:32:39;100722.28;;;30.74;39.04
60725;BME280;59881;36.722;-4.462;2023-06-04T06:35:05;100480.81;;;30.12;38.94
60725;BME280;59881;36.722;-4.462;2023-06-04T06:37:31;100443.50;;;30.19;37.92
60725;BME280;59881;36.722;-4.462;2023-06-04T06:39:56;100638.84;;;31.50;37.77
60725;BME280;59881;36.722;-4.462;2023-06-04T06:42:22;100490.44;;;30.90;36.84
60725;BME280;59881;36.722;-4.462;2023-06-04T06:44:48;100639.44;;;32.10;36.68
60725;BME280;59881;36.722;-4.462;2023-06-04T06:47:13;100469.88;;;31.40;35.79
60725;BME280;59881;36.722;-4.462;2023-06-04T06:49:40;100647.09;;;32.97;34.90
60725;BME280;59881;36.722;-4.462;2023-06-04T06:52:06;100649.59;;;33.21;34.57
60725;BME280;59881;36.722;-4.462;2023-06-04T06:54:31;100711.19;;;33.34;34.28
60725;BME280;59881;36.722;-4.462;2023-06-04T06:56:57;100361.13;;;31.84;33.39
60725;BME280;59881;36.722;-4.462;2023-06-04T06:59:23;100404.88;;;32.55;33.23
60725;BME280;59881;36.722;-4.462;2023-06-04T07:01:49;100379.25;;;32.56;32.37
60725;BME280;59881;36.722;-4.462;2023-06-04T07:04:15;100549.75;;;34.12;32.07
60725;BME280;59881;36.722;-4.462;2023-06-04T07:06:41;100644.81;;;35.17;30.98
60725;BME280;59881;36.722;-4.462;2023-06-04T07:09:07;100645.22;;;35.61;30.72
60725;BME280;59881;36.722;-4.462;2023-06-04T07:11:32;100307.34;;;33.65;30.07
60725;BME280;59881;36.722;-4.462;2023-06-04T07:13:58;100408.56;;;34.38;29.52
60725;BME280;59881;36.722;-4.462;2023-06-04T07:16:23;100595.19;;;36.22;28.99
60725;BME280;59881;36.722;-4.462;2023-06-04T07:18:49;100391.03;;;35.33;28.20
60725;BME280;59881;36.722;-4.462;2023-06-04T07:21:15;100478.91;;;35.98;27.66
60725;BME280;59881;36.722;-4.462;2023-06-04T07:23:41;100324.41;;;35.58;27.20
60725;BME280;59881;36.722;-4.462;2023-06-04T07:26:07;100665.69;;;37.93;26.52
60725;BME280;59881;36.722;-4.462;2023-06-04T07:28:33;100674.03;;;38.22;26.28
60725;BME280;59881;36.722;-4.462;2023-06-04T07:31:00;100438.59;;;36.89;25.72
60725;BME280;59881;36.722;-4.462;2023-06-04T07:33:26;100670.63;;;38.65;25.26
60725;BME280;59881;36.722;-4.462;2023-06-04T07:35:51;100668.66;;;38.70;24.94
60725;BME280;59881;36.722;-4.462;2023-06-04T07:38:17;100219.53;;;35.62;25.00
60725;BME280;59881;36.722;-4.462;2023-06-04T07:40:45;100665.75;;;38.57;24.78
60725;BME280;59881;36.722;-4.462;2023-06-04T07:43:10;100476.97;;;37.39;24.58
60725;BME280;59881;36.722;-4.462;2023-06-04T07:45:36;100649.97;;;38.91;24.52
60725;BME280;59881;36.722;-4.462;2023-06-04T07:48:01;100646.25;;;39.49;23.67
60725;BME280;59881;36.722;-4.462;2023-06-04T07:50:27;100667.75;;;39.90;23.18
60725;BME280;59881;36.722;-4.462;2023-06-04T07:52:53;100393.09;;;38.53;22.67
60725;BME280;59881;36.722;-4.462;2023-06-04T07:55:18;100673.75;;;39.73;23.06
60725;BME280;59881;36.722;-4.462;2023-06-04T07:57:44;100430.97;;;37.84;23.40
60725;BME280;59881;36.722;-4.462;2023-06-04T08:00:10;100536.31;;;37.79;23.86
60725;BME280;59881;36.722;-4.462;2023-06-04T08:02:36;100672.63;;;38.83;24.02
60725;BME280;59881;36.722;-4.462;2023-06-04T08:05:02;100643.09;;;38.65;23.71
60725;BME280;59881;36.722;-4.462;2023-06-04T08:07:29;100679.16;;;38.34;24.44
60725;BME280;59881;36.722;-4.462;2023-06-04T08:09:55;100696.72;;;39.02;23.83
60725;BME280;59881;36.722;-4.462;2023-06-04T08:12:22;100706.06;;;39.25;23.34
60725;BME280;59881;36.722;-4.462;2023-06-04T08:14:47;100683.66;;;39.31;23.15
60725;BME280;59881;36.722;-4.462;2023-06-04T08:17:15;100685.91;;;39.29;23.01
60725;BME280;59881;36.722;-4.462;2023-06-04T08:19:41;100531.03;;;38.70;22.89
60725;BME280;59881;36.722;-4.462;2023-06-04T08:22:06;100711.78;;;39.77;22.88
60725;BME280;59881;36.722;-4.462;2023-06-04T08:24:32;100547.75;;;38.74;22.95
60725;BME280;59881;36.722;-4.462;2023-06-04T08:26:58;100451.41;;;36.99;23.92
60725;BME280;59881;36.722;-4.462;2023-06-04T08:29:23;100558.44;;;36.18;25.16
60725;BME280;59881;36.722;-4.462;2023-06-04T08:31:49;100457.44;;;34.82;26.43
60725;BME280;59881;36.722;-4.462;2023-06-04T08:34:14;100468.84;;;34.11;27.70
60725;BME280;59881;36.722;-4.462;2023-06-04T08:36:40;100572.34;;;34.77;27.50
60725;BME280;59881;36.722;-4.462;2023-06-04T08:39:06;100412.75;;;33.28;28.27
60725;BME280;59881;36.722;-4.462;2023-06-04T08:41:37;100700.59;;;35.11;29.26
60725;BME280;59881;36.722;-4.462;2023-06-04T08:44:05;100685.84;;;35.70;28.74
60725;BME280;59881;36.722;-4.462;2023-06-04T08:46:37;100690.88;;;36.50;28.48
60725;BME280;59881;36.722;-4.462;2023-06-04T08:49:05;100699.94;;;36.50;27.68
60725;BME280;59881;36.722;-4.462;2023-06-04T08:51:33;100366.69;;;34.22;27.74
60725;BME280;59881;36.722;-4.462;2023-06-04T08:54:00;100639.03;;;36.07;26.13
60725;BME280;59881;36.722;-4.462;2023-06-04T08:56:26;100474.53;;;35.97;25.28
60725;BME280;59881;36.722;-4.462;2023-06-04T08:58:56;100698.53;;;37.09;25.30
60725;BME280;59881;36.722;-4.462;2023-06-04T09:01:26;100745.41;;;37.28;25.55
60725;BME280;59881;36.722;-4.462;2023-06-04T09:03:52;100699.91;;;36.96;25.30
60725;BME280;59881;36.722;-4.462;2023-06-04T09:06:18;100595.47;;;36.16;25.22
60725;BME280;59881;36.722;-4.462;2023-06-04T09:08:44;100699.63;;;36.87;25.67
60725;BME280;59881;36.722;-4.462;2023-06-04T09:11:14;100607.22;;;36.47;25.62
60725;BME280;59881;36.722;-4.462;2023-06-04T09:13:43;100487.47;;;35.76;25.97
60725;BME280;59881;36.722;-4.462;2023-06-04T09:16:10;100624.53;;;36.27;25.92
60725;BME280;59881;36.722;-4.462;2023-06-04T09:18:35;100720.00;;;36.71;26.15
60725;BME280;59881;36.722;-4.462;2023-06-04T09:21:01;100715.03;;;36.58;26.72
60725;BME280;59881;36.722;-4.462;2023-06-04T09:23:27;100742.22;;;36.64;26.27
60725;BME280;59881;36.722;-4.462;2023-06-04T09:25:53;100347.91;;;34.46;26.95
60725;BME280;59881;36.722;-4.462;2023-06-04T09:28:20;100465.50;;;35.35;26.86
60725;BME280;59881;36.722;-4.462;2023-06-04T09:30:54;100678.50;;;36.57;27.47
60725;BME280;59881;36.722;-4.462;2023-06-04T09:33:20;100494.88;;;35.65;27.13
60725;BME280;59881;36.722;-4.462;2023-06-04T09:35:56;100718.25;;;37.16;27.42
60725;BME280;59881;36.722;-4.462;2023-06-04T09:38:22;100656.75;;;37.07;26.99
60725;BME280;59881;36.722;-4.462;2023-06-04T09:40:48;100599.19;;;36.81;26.47
60725;BME280;59881;36.722;-4.462;2023-06-04T09:43:24;100483.97;;;36.66;26.32
60725;BME280;59881;36.722;-4.462;2023-06-04T09:45:49;100717.63;;;38.74;25.75
60725;BME280;59881;36.722;-4.462;2023-06-04T09:48:21;100718.75;;;38.73;25.64
60725;BME280;59881;36.722;-4.462;2023-06-04T09:50:47;100665.16;;;38.30;26.33
60725;BME280;59881;36.722;-4.462;2023-06-04T09:53:18;100660.69;;;37.51;27.01
60725;BME280;59881;36.722;-4.462;2023-06-04T09:55:57;100387.38;;;35.99;27.19
60725;BME280;59881;36.722;-4.462;2023-06-04T09:58:25;100719.44;;;38.59;26.80
60725;BME280;59881;36.722;-4.462;2023-06-04T10:00:52;100555.72;;;37.09;27.41
60725;BME280;59881;36.722;-4.462;2023-06-04T10:03:20;100533.06;;;36.78;27.35
60725;BME280;59881;36.722;-4.462;2023-06-04T10:05:52;100722.03;;;38.40;27.34
60725;BME280;59881;36.722;-4.462;2023-06-04T10:08:21;100721.19;;;38.74;26.74
60725;BME280;59881;36.722;-4.462;2023-06-04T10:10:49;100532.66;;;37.05;27.32
60725;BME280;59881;36.722;-4.462;2023-06-04T10:13:18;100517.47;;;36.53;28.01
60725;BME280;59881;36.722;-4.462;2023-06-04T10:15:45;100772.47;;;37.76;28.19
60725;BME280;59881;36.722;-4.462;2023-06-04T10:18:13;100486.31;;;36.23;27.90
60725;BME280;59881;36.722;-4.462;2023-06-04T10:20:40;100759.97;;;38.48;27.23
60725;BME280;59881;36.722;-4.462;2023-06-04T10:23:07;100653.22;;;38.40;26.26
60725;BME280;59881;36.722;-4.462;2023-06-04T10:25:36;100726.88;;;39.12;25.83
60725;BME280;59881;36.722;-4.462;2023-06-04T10:28:03;100693.38;;;38.41;26.39
60725;BME280;59881;36.722;-4.462;2023-06-04T10:30:32;100726.44;;;37.97;27.25
60725;BME280;59881;36.722;-4.462;2023-06-04T10:32:58;100732.50;;;37.94;27.43
60725;BME280;59881;36.722;-4.462;2023-06-04T10:35:33;100725.28;;;38.08;27.38
60725;BME280;59881;36.722;-4.462;2023-06-04T10:38:10;100593.25;;;36.23;28.25
60725;BME280;59881;36.722;-4.462;2023-06-04T10:40:37;100728.91;;;34.25;31.72
60725;BME280;59881;36.722;-4.462;2023-06-04T10:43:07;100551.78;;;30.04;36.70
60725;BME280;59881;36.722;-4.462;2023-06-04T10:45:33;100762.88;;;29.85;40.06
60725;BME280;59881;36.722;-4.462;2023-06-04T10:48:00;100479.84;;;26.98;43.04
60725;BME280;59881;36.722;-4.462;2023-06-04T10:50:26;100507.88;;;25.98;45.16
60725;BME280;59881;36.722;-4.462;2023-06-04T10:52:52;100764.50;;;27.32;46.42
60725;BME280;59881;36.722;-4.462;2023-06-04T10:55:18;100437.44;;;24.65;47.95
60725;BME280;59881;36.722;-4.462;2023-06-04T10:58:00;100475.09;;;24.52;48.88
60725;BME280;59881;36.722;-4.462;2023-06-04T11:00:44;100733.50;;;25.86;50.67
60725;BME280;59881;36.722;-4.462;2023-06-04T11:03:15;100763.03;;;25.94;50.59
60725;BME280;59881;36.722;-4.462;2023-06-04T11:05:42;100856.84;;;25.92;50.62
60725;BME280;59881;36.722;-4.462;2023-06-04T11:08:09;100753.91;;;25.95;50.60
60725;BME280;59881;36.722;-4.462;2023-06-04T11:10:43;100749.38;;;26.09;50.18
60725;BME280;59881;36.722;-4.462;2023-06-04T11:13:09;100570.00;;;24.61;50.59
60725;BME280;59881;36.722;-4.462;2023-06-04T11:15:43;100760.78;;;25.63;51.46
60725;BME280;59881;36.722;-4.462;2023-06-04T11:18:19;100448.47;;;23.14;52.65
60725;BME280;59881;36.722;-4.462;2023-06-04T11:20:50;100754.59;;;25.34;51.96
60725;BME280;59881;36.722;-4.462;2023-06-04T11:23:23;100534.84;;;23.91;52.88
60725;BME280;59881;36.722;-4.462;2023-06-04T11:25:52;100358.63;;;22.66;52.21
60725;BME280;59881;36.722;-4.462;2023-06-04T11:28:18;100412.72;;;22.99;53.88
60725;BME280;59881;36.722;-4.462;2023-06-04T11:30:44;100081.22;;;20.92;53.34
60725;BME280;59881;36.722;-4.462;2023-06-04T11:33:20;100402.34;;;22.45;52.62
60725;BME280;59881;36.722;-4.462;2023-06-04T11:35:46;100551.69;;;23.42;52.45
60725;BME280;59881;36.722;-4.462;2023-06-04T11:38:11;100670.28;;;24.20;51.42
60725;BME280;59881;36.722;-4.462;2023-06-04T11:40:37;100758.44;;;24.97;51.54
60725;BME280;59881;36.722;-4.462;2023-06-04T11:43:03;100523.50;;;23.52;51.51
60725;BME280;59881;36.722;-4.462;2023-06-04T11:45:28;100543.13;;;23.31;51.15
60725;BME280;59881;36.722;-4.462;2023-06-04T11:47:57;100751.69;;;25.08;51.37
60725;BME280;59881;36.722;-4.462;2023-06-04T11:50:27;100751.94;;;25.13;51.19
60725;BME280;59881;36.722;-4.462;2023-06-04T11:52:53;100462.00;;;23.43;50.36
60725;BME280;59881;36.722;-4.462;2023-06-04T11:55:19;100745.00;;;25.04;51.15
60725;BME280;59881;36.722;-4.462;2023-06-04T11:57:49;100732.44;;;24.83;50.78
60725;BME280;59881;36.722;-4.462;2023-06-04T12:00:16;100720.53;;;24.98;50.66
60725;BME280;59881;36.722;-4.462;2023-06-04T12:02:53;100453.31;;;22.89;51.60
60725;BME280;59881;36.722;-4.462;2023-06-04T12:05:21;100324.25;;;22.76;51.73
60725;BME280;59881;36.722;-4.462;2023-06-04T12:07:48;100618.44;;;24.32;53.11
60725;BME280;59881;36.722;-4.462;2023-06-04T12:10:17;100785.47;;;24.82;53.90
60725;BME280;59881;36.722;-4.462;2023-06-04T12:12:42;100403.22;;;22.82;54.16
60725;BME280;59881;36.722;-4.462;2023-06-04T12:15:09;100765.28;;;24.71;54.24
60725;BME280;59881;36.722;-4.462;2023-06-04T12:17:48;100580.84;;;23.96;54.08
60725;BME280;59881;36.722;-4.462;2023-06-04T12:20:14;100378.72;;;22.70;54.55
60725;BME280;59881;36.722;-4.462;2023-06-04T12:22:46;100709.88;;;24.62;55.43
60725;BME280;59881;36.722;-4.462;2023-06-04T12:25:12;100456.84;;;22.75;55.22
60725;BME280;59881;36.722;-4.462;2023-06-04T12:27:48;100416.63;;;22.45;55.58
60725;BME280;59881;36.722;-4.462;2023-06-04T12:30:14;100704.38;;;24.49;55.50
60725;BME280;59881;36.722;-4.462;2023-06-04T12:32:41;100710.81;;;24.54;55.47
60725;BME280;59881;36.722;-4.462;2023-06-04T12:35:07;100369.44;;;22.36;55.43
60725;BME280;59881;36.722;-4.462;2023-06-04T12:37:33;100596.66;;;23.84;55.57
60725;BME280;59881;36.722;-4.462;2023-06-04T12:39:58;100755.03;;;24.60;56.18
60725;BME280;59881;36.722;-4.462;2023-06-04T12:42:24;100226.84;;;21.43;56.03
60725;BME280;59881;36.722;-4.462;2023-06-04T12:44:49;100461.41;;;22.60;56.58